sensor_id;sensor_type;location;lat;lon;timestamp;temperature;humidity
18291;DHT22;9271;48.590;8.866;2022-10-16T00:01:08;17.20;99.90
18291;DHT22;9271;48.590;8.866;2022-10-16T00:03:37;16.90;99.90
18291;DHT22;9271;48.590;8.866;2022-10-16T00:06:04;16.80;99.90
18291;DHT22;9271;48.590;8.866;2022-10-16T00:08:33;17.00;99.90
18291;DHT22;9271;48.590;8.866;2022-10-16T00:11:02;17.00;99.90
18291;DHT22;9271;48.590;8.866;2022-10-16T00:13:29;16.90;99.90
18291;DHT22;9271;48.590;8.866;2022-10-16T00:15:57;16.20;99.90
18291;DHT22;9271;48.590;8.866;2022-10-16T00:18:24;16.10;99.90
18291;DHT22;9271;48.590;8.866;2022-10-16T00:20:51;16.30;99.90
18291;DHT22;9271;48.590;8.866;2022-10-16T00:23:18;16.50;99.90
18291;DHT22;9271;48.590;8.866;2022-10-16T00:25:54;16.50;99.90
18291;DHT22;9271;48.590;8.866;2022-10-16T00:28:21;16.70;99.90
18291;DHT22;9271;48.590;8.866;2022-10-16T00:30:48;16.80;99.90
18291;DHT22;9271;48.590;8.866;2022-10-16T00:33:14;16.80;99.90
18291;DHT22;9271;48.590;8.866;2022-10-16T00:35:41;16.70;99.90
18291;DHT22;9271;48.590;8.866;2022-10-16T00:38:08;16.40;99.90
18291;DHT22;9271;48.590;8.866;2022-10-16T00:40:35;16.50;99.90
18291;DHT22;9271;48.590;8.866;2022-10-16T00:43:08;16.50;99.90
18291;DHT22;9271;48.590;8.866;2022-10-16T00:45:35;16.60;99.90
18291;DHT22;9271;48.590;8.866;2022-10-16T00:48:02;16.60;99.90
18291;DHT22;9271;48.590;8.866;2022-10-16T00:50:31;16.60;99.90
18291;DHT22;9271;48.590;8.866;2022-10-16T00:52:59;16.60;99.90
18291;DHT22;9271;48.590;8.866;2022-10-16T00:55:27;16.50;99.90
18291;DHT22;9271;48.590;8.866;2022-10-16T00:57:56;16.40;99.90
18291;DHT22;9271;48.590;8.866;2022-10-16T01:00:26;16.40;99.90
18291;DHT22;9271;48.590;8.866;2022-10-16T01:02:54;16.40;99.90
18291;DHT22;9271;48.590;8.866;2022-10-16T01:05:21;16.50;99.90
18291;DHT22;9271;48.590;8.866;2022-10-16T01:07:56;16.50;99.90
18291;DHT22;9271;48.590;8.866;2022-10-16T01:10:29;16.40;99.90
18291;DHT22;9271;48.590;8.866;2022-10-16T01:13:01;16.50;99.90
18291;DHT22;9271;48.590;8.866;2022-10-16T01:15:34;16.60;99.90
18291;DHT22;9271;48.590;8.866;2022-10-16T01:18:05;16.50;99.90
18291;DHT22;9271;48.590;8.866;2022-10-16T01:20:37;16.50;99.90
18291;DHT22;9271;48.590;8.866;2022-10-16T01:23:18;16.50;99.90
18291;DHT22;9271;48.590;8.866;2022-10-16T01:26:14;16.60;99.90
18291;DHT22;9271;48.590;8.866;2022-10-16T01:28:51;16.70;99.90
18291;DHT22;9271;48.590;8.866;2022-10-16T01:31:23;16.70;99.90
18291;DHT22;9271;48.590;8.866;2022-10-16T01:33:56;16.70;99.90
18291;DHT22;9271;48.590;8.866;2022-10-16T01:36:28;16.70;99.90
18291;DHT22;9271;48.590;8.866;2022-10-16T01:39:00;16.70;99.90
18291;DHT22;9271;48.590;8.866;2022-10-16T01:41:31;16.60;99.90
18291;DHT22;9271;48.590;8.866;2022-10-16T01:44:02;16.60;99.90
18291;DHT22;9271;48.590;8.866;2022-10-16T01:46:32;16.40;99.90
18291;DHT22;9271;48.590;8.866;2022-10-16T01:49:00;16.50;99.90
18291;DHT22;9271;48.590;8.866;2022-10-16T01:51:29;16.60;99.90
18291;DHT22;9271;48.590;8.866;2022-10-16T01:53:58;16.70;99.90
18291;DHT22;9271;48.590;8.866;2022-10-16T01:56:27;16.80;99.90
18291;DHT22;9271;48.590;8.866;2022-10-16T01:58:59;16.90;99.90
18291;DHT22;9271;48.590;8.866;2022-10-16T02:01:31;16.90;99.90
18291;DHT22;9271;48.590;8.866;2022-10-16T02:04:02;17.10;99.90
18291;DHT22;9271;48.590;8.866;2022-10-16T02:06:31;16.80;99.90
18291;DHT22;9271;48.590;8.866;2022-10-16T02:08:59;16.60;99.90
18291;DHT22;9271;48.590;8.866;2022-10-16T02:11:25;16.80;99.90
18291;DHT22;9271;48.590;8.866;2022-10-16T02:13:57;17.00;99.90
18291;DHT22;9271;48.590;8.866;2022-10-16T02:16:35;16.90;99.90
18291;DHT22;9271;48.590;8.866;2022-10-16T02:19:02;17.00;99.90
18291;DHT22;9271;48.590;8.866;2022-10-16T02:21:34;17.00;99.90
18291;DHT22;9271;48.590;8.866;2022-10-16T02:24:06;17.00;99.90
18291;DHT22;9271;48.590;8.866;2022-10-16T02:26:38;17.10;99.90
18291;DHT22;9271;48.590;8.866;2022-10-16T02:29:12;17.20;99.90
18291;DHT22;9271;48.590;8.866;2022-10-16T02:31:45;17.10;99.90
18291;DHT22;9271;48.590;8.866;2022-10-16T02:34:14;17.10;99.90
18291;DHT22;9271;48.590;8.866;2022-10-16T02:36:43;16.90;99.90
18291;DHT22;9271;48.590;8.866;2022-10-16T02:39:11;16.80;99.90
18291;DHT22;9271;48.590;8.866;2022-10-16T02:41:38;17.00;99.90
18291;DHT22;9271;48.590;8.866;2022-10-16T02:44:05;17.20;99.90
18291;DHT22;9271;48.590;8.866;2022-10-16T02:46:32;17.10;99.90
18291;DHT22;9271;48.590;8.866;2022-10-16T02:49:00;17.00;99.90
18291;DHT22;9271;48.590;8.866;2022-10-16T02:51:26;17.00;99.90
18291;DHT22;9271;48.590;8.866;2022-10-16T02:53:53;16.90;99.90
18291;DHT22;9271;48.590;8.866;2022-10-16T02:56:20;17.00;99.90
18291;DHT22;9271;48.590;8.866;2022-10-16T02:58:47;16.90;99.90
18291;DHT22;9271;48.590;8.866;2022-10-16T03:01:13;16.80;99.90
18291;DHT22;9271;48.590;8.866;2022-10-16T03:03:42;16.70;99.90
18291;DHT22;9271;48.590;8.866;2022-10-16T03:06:10;16.80;99.90
18291;DHT22;9271;48.590;8.866;2022-10-16T03:08:36;16.80;99.90
18291;DHT22;9271;48.590;8.866;2022-10-16T03:11:03;16.80;99.90
18291;DHT22;9271;48.590;8.866;2022-10-16T03:13:30;16.90;99.90
18291;DHT22;9271;48.590;8.866;2022-10-16T03:15:57;17.00;99.90
18291;DHT22;9271;48.590;8.866;2022-10-16T03:18:24;16.90;99.90
18291;DHT22;9271;48.590;8.866;2022-10-16T03:20:50;17.00;99.90
18291;DHT22;9271;48.590;8.866;2022-10-16T03:23:18;17.00;99.90
18291;DHT22;9271;48.590;8.866;2022-10-16T03:25:45;17.00;99.90
18291;DHT22;9271;48.590;8.866;2022-10-16T03:28:12;17.00;99.90
18291;DHT22;9271;48.590;8.866;2022-10-16T03:30:39;17.20;99.90
18291;DHT22;9271;48.590;8.866;2022-10-16T03:33:06;17.00;99.90
18291;DHT22;9271;48.590;8.866;2022-10-16T03:35:32;16.80;99.90
18291;DHT22;9271;48.590;8.866;2022-10-16T03:37:59;16.90;99.90
18291;DHT22;9271;48.590;8.866;2022-10-16T03:40:28;16.70;99.90
18291;DHT22;9271;48.590;8.866;2022-10-16T03:42:56;16.50;99.90
18291;DHT22;9271;48.590;8.866;2022-10-16T03:45:23;16.60;99.90
18291;DHT22;9271;48.590;8.866;2022-10-16T03:47:50;16.60;99.90
18291;DHT22;9271;48.590;8.866;2022-10-16T03:50:17;16.70;99.90
18291;DHT22;9271;48.590;8.866;2022-10-16T03:52:43;16.70;99.90
18291;DHT22;9271;48.590;8.866;2022-10-16T03:55:10;16.70;99.90
18291;DHT22;9271;48.590;8.866;2022-10-16T03:57:38;16.70;99.90
18291;DHT22;9271;48.590;8.866;2022-10-16T04:00:06;16.50;99.90
18291;DHT22;9271;48.590;8.866;2022-10-16T04:02:33;16.60;99.90
18291;DHT22;9271;48.590;8.866;2022-10-16T04:04:59;16.90;99.90
18291;DHT22;9271;48.590;8.866;2022-10-16T04:07:26;16.50;99.90
18291;DHT22;9271;48.590;8.866;2022-10-16T04:09:54;16.50;99.90
18291;DHT22;9271;48.590;8.866;2022-10-16T04:12:21;16.60;99.90
18291;DHT22;9271;48.590;8.866;2022-10-16T04:14:49;16.80;99.90
18291;DHT22;9271;48.590;8.866;2022-10-16T04:17:15;17.10;99.90
18291;DHT22;9271;48.590;8.866;2022-10-16T04:19:42;17.30;99.90
18291;DHT22;9271;48.590;8.866;2022-10-16T04:22:09;17.40;99.90
18291;DHT22;9271;48.590;8.866;2022-10-16T04:24:36;17.40;99.90
18291;DHT22;9271;48.590;8.866;2022-10-16T04:27:03;17.40;99.90
18291;DHT22;9271;48.590;8.866;2022-10-16T04:29:29;17.40;99.90
18291;DHT22;9271;48.590;8.866;2022-10-16T04:31:57;17.40;99.90
18291;DHT22;9271;48.590;8.866;2022-10-16T04:34:24;17.50;99.90
18291;DHT22;9271;48.590;8.866;2022-10-16T04:36:51;17.50;99.90
18291;DHT22;9271;48.590;8.866;2022-10-16T04:39:18;17.50;99.90
18291;DHT22;9271;48.590;8.866;2022-10-16T04:41:44;17.50;99.90
18291;DHT22;9271;48.590;8.866;2022-10-16T04:44:11;17.50;99.90
18291;DHT22;9271;48.590;8.866;2022-10-16T04:46:38;17.50;99.90
18291;DHT22;9271;48.590;8.866;2022-10-16T04:49:06;17.40;99.90
18291;DHT22;9271;48.590;8.866;2022-10-16T04:51:32;17.30;99.90
18291;DHT22;9271;48.590;8.866;2022-10-16T04:53:59;17.40;99.90
18291;DHT22;9271;48.590;8.866;2022-10-16T04:56:26;17.40;99.90
18291;DHT22;9271;48.590;8.866;2022-10-16T04:58:53;17.30;99.90
18291;DHT22;9271;48.590;8.866;2022-10-16T05:01:19;17.30;99.90
18291;DHT22;9271;48.590;8.866;2022-10-16T05:03:46;17.20;99.90
18291;DHT22;9271;48.590;8.866;2022-10-16T05:06:14;17.40;99.90
18291;DHT22;9271;48.590;8.866;2022-10-16T05:08:41;17.30;99.90
18291;DHT22;9271;48.590;8.866;2022-10-16T05:11:08;17.20;99.90
18291;DHT22;9271;48.590;8.866;2022-10-16T05:13:34;17.20;99.90
18291;DHT22;9271;48.590;8.866;2022-10-16T05:16:01;17.20;99.90
18291;DHT22;9271;48.590;8.866;2022-10-16T05:18:28;17.40;99.90
18291;DHT22;9271;48.590;8.866;2022-10-16T05:20:54;17.40;99.90
18291;DHT22;9271;48.590;8.866;2022-10-16T05:23:22;17.40;99.90
18291;DHT22;9271;48.590;8.866;2022-10-16T05:25:53;17.30;99.90
18291;DHT22;9271;48.590;8.866;2022-10-16T05:28:20;17.50;99.90
18291;DHT22;9271;48.590;8.866;2022-10-16T05:30:47;17.30;99.90
18291;DHT22;9271;48.590;8.866;2022-10-16T05:33:14;16.90;99.90
18291;DHT22;9271;48.590;8.866;2022-10-16T05:35:40;16.40;99.90
18291;DHT22;9271;48.590;8.866;2022-10-16T05:38:07;16.50;99.90
18291;DHT22;9271;48.590;8.866;2022-10-16T05:40:35;16.30;99.90
18291;DHT22;9271;48.590;8.866;2022-10-16T05:43:02;16.10;99.90
18291;DHT22;9271;48.590;8.866;2022-10-16T05:45:28;16.10;99.90
18291;DHT22;9271;48.590;8.866;2022-10-16T05:47:55;16.30;99.90
18291;DHT22;9271;48.590;8.866;2022-10-16T05:50:22;16.50;99.90
18291;DHT22;9271;48.590;8.866;2022-10-16T05:52:48;16.10;99.90
18291;DHT22;9271;48.590;8.866;2022-10-16T05:55:15;16.30;99.90
18291;DHT22;9271;48.590;8.866;2022-10-16T05:57:43;16.50;99.90
18291;DHT22;9271;48.590;8.866;2022-10-16T06:00:11;16.70;99.90
18291;DHT22;9271;48.590;8.866;2022-10-16T06:02:37;16.70;99.90
18291;DHT22;9271;48.590;8.866;2022-10-16T06:05:04;16.90;99.90
18291;DHT22;9271;48.590;8.866;2022-10-16T06:07:34;17.00;99.90
18291;DHT22;9271;48.590;8.866;2022-10-16T06:10:00;17.00;99.90
18291;DHT22;9271;48.590;8.866;2022-10-16T06:12:28;16.90;99.90
18291;DHT22;9271;48.590;8.866;2022-10-16T06:14:56;17.00;99.90
18291;DHT22;9271;48.590;8.866;2022-10-16T06:17:22;17.20;99.90
18291;DHT22;9271;48.590;8.866;2022-10-16T06:19:49;17.20;99.90
18291;DHT22;9271;48.590;8.866;2022-10-16T06:22:16;17.40;99.90
18291;DHT22;9271;48.590;8.866;2022-10-16T06:24:43;17.40;99.90
18291;DHT22;9271;48.590;8.866;2022-10-16T06:27:09;17.50;99.90
18291;DHT22;9271;48.590;8.866;2022-10-16T06:29:36;17.80;99.90
18291;DHT22;9271;48.590;8.866;2022-10-16T06:32:04;17.90;99.90
18291;DHT22;9271;48.590;8.866;2022-10-16T06:34:31;18.10;99.90
18291;DHT22;9271;48.590;8.866;2022-10-16T06:36:58;17.50;99.90
18291;DHT22;9271;48.590;8.866;2022-10-16T06:39:24;17.50;99.90
18291;DHT22;9271;48.590;8.866;2022-10-16T06:41:51;17.60;99.90
18291;DHT22;9271;48.590;8.866;2022-10-16T06:44:18;18.40;99.90
18291;DHT22;9271;48.590;8.866;2022-10-16T06:46:44;18.70;99.90
18291;DHT22;9271;48.590;8.866;2022-10-16T06:49:12;18.60;99.90
18291;DHT22;9271;48.590;8.866;2022-10-16T06:51:41;18.40;99.90
18291;DHT22;9271;48.590;8.866;2022-10-16T06:54:08;18.60;99.90
18291;DHT22;9271;48.590;8.866;2022-10-16T06:56:35;18.80;99.90
18291;DHT22;9271;48.590;8.866;2022-10-16T06:59:02;19.00;99.90
18291;DHT22;9271;48.590;8.866;2022-10-16T07:01:29;19.20;99.90
18291;DHT22;9271;48.590;8.866;2022-10-16T07:03:56;19.40;99.90
18291;DHT22;9271;48.590;8.866;2022-10-16T07:06:25;19.60;99.90
18291;DHT22;9271;48.590;8.866;2022-10-16T07:08:53;19.80;99.90
18291;DHT22;9271;48.590;8.866;2022-10-16T07:11:21;20.00;99.90
18291;DHT22;9271;48.590;8.866;2022-10-16T07:13:49;20.30;99.90
18291;DHT22;9271;48.590;8.866;2022-10-16T07:16:17;20.10;99.90
18291;DHT22;9271;48.590;8.866;2022-10-16T07:18:45;19.90;99.90
18291;DHT22;9271;48.590;8.866;2022-10-16T07:21:15;19.80;99.90
18291;DHT22;9271;48.590;8.866;2022-10-16T07:23:44;19.80;99.90
18291;DHT22;9271;48.590;8.866;2022-10-16T07:26:11;19.70;99.90
18291;DHT22;9271;48.590;8.866;2022-10-16T07:28:38;19.70;99.90
18291;DHT22;9271;48.590;8.866;2022-10-16T07:31:06;19.90;99.90
18291;DHT22;9271;48.590;8.866;2022-10-16T07:33:34;19.90;99.90
18291;DHT22;9271;48.590;8.866;2022-10-16T07:36:02;19.90;99.90
18291;DHT22;9271;48.590;8.866;2022-10-16T07:38:28;19.90;99.90
18291;DHT22;9271;48.590;8.866;2022-10-16T07:40:57;19.90;99.90
18291;DHT22;9271;48.590;8.866;2022-10-16T07:43:24;20.00;99.90
18291;DHT22;9271;48.590;8.866;2022-10-16T07:45:51;20.00;99.90
18291;DHT22;9271;48.590;8.866;2022-10-16T07:48:19;20.10;99.90
18291;DHT22;9271;48.590;8.866;2022-10-16T07:50:46;20.10;99.90
18291;DHT22;9271;48.590;8.866;2022-10-16T07:53:13;20.10;99.90
18291;DHT22;9271;48.590;8.866;2022-10-16T07:55:40;20.00;99.90
18291;DHT22;9271;48.590;8.866;2022-10-16T07:58:08;19.80;99.90
18291;DHT22;9271;48.590;8.866;2022-10-16T08:00:36;19.60;99.90
18291;DHT22;9271;48.590;8.866;2022-10-16T08:03:03;19.70;99.90
18291;DHT22;9271;48.590;8.866;2022-10-16T08:05:32;19.70;99.90
18291;DHT22;9271;48.590;8.866;2022-10-16T08:07:59;19.90;99.90
18291;DHT22;9271;48.590;8.866;2022-10-16T08:10:27;20.30;99.90
18291;DHT22;9271;48.590;8.866;2022-10-16T08:12:54;20.50;99.60
18291;DHT22;9271;48.590;8.866;2022-10-16T08:15:22;20.50;99.70
18291;DHT22;9271;48.590;8.866;2022-10-16T08:17:57;20.50;99.60
18291;DHT22;9271;48.590;8.866;2022-10-16T08:20:23;20.30;99.90
18291;DHT22;9271;48.590;8.866;2022-10-16T08:22:50;20.20;99.90
18291;DHT22;9271;48.590;8.866;2022-10-16T08:25:17;20.40;99.90
18291;DHT22;9271;48.590;8.866;2022-10-16T08:27:44;20.60;99.40
18291;DHT22;9271;48.590;8.866;2022-10-16T08:30:11;20.60;99.90
18291;DHT22;9271;48.590;8.866;2022-10-16T08:32:40;20.70;99.60
18291;DHT22;9271;48.590;8.866;2022-10-16T08:35:08;20.70;99.20
18291;DHT22;9271;48.590;8.866;2022-10-16T08:37:35;20.70;99.70
18291;DHT22;9271;48.590;8.866;2022-10-16T08:40:01;20.60;99.10
18291;DHT22;9271;48.590;8.866;2022-10-16T08:45:39;20.20;99.70
18291;DHT22;9271;48.590;8.866;2022-10-16T08:48:19;20.30;99.90
18291;DHT22;9271;48.590;8.866;2022-10-16T08:50:48;20.60;99.90
18291;DHT22;9271;48.590;8.866;2022-10-16T08:53:19;20.80;99.90
18291;DHT22;9271;48.590;8.866;2022-10-16T08:55:50;20.90;99.80
18291;DHT22;9271;48.590;8.866;2022-10-16T08:58:19;20.80;99.70
18291;DHT22;9271;48.590;8.866;2022-10-16T09:00:47;21.20;99.50
18291;DHT22;9271;48.590;8.866;2022-10-16T09:03:28;21.40;99.20
18291;DHT22;9271;48.590;8.866;2022-10-16T09:06:16;21.30;99.10
18291;DHT22;9271;48.590;8.866;2022-10-16T09:08:54;21.20;98.90
18291;DHT22;9271;48.590;8.866;2022-10-16T09:11:30;22.00;98.40
18291;DHT22;9271;48.590;8.866;2022-10-16T09:14:05;23.00;97.10
18291;DHT22;9271;48.590;8.866;2022-10-16T09:16:36;23.80;96.20
18291;DHT22;9271;48.590;8.866;2022-10-16T09:19:13;25.30;93.80
18291;DHT22;9271;48.590;8.866;2022-10-16T09:21:45;26.80;91.60
18291;DHT22;9271;48.590;8.866;2022-10-16T09:24:15;27.90;88.40
18291;DHT22;9271;48.590;8.866;2022-10-16T09:26:42;27.90;86.90
18291;DHT22;9271;48.590;8.866;2022-10-16T09:29:10;27.70;87.00
18291;DHT22;9271;48.590;8.866;2022-10-16T09:31:38;27.20;88.50
18291;DHT22;9271;48.590;8.866;2022-10-16T09:34:09;26.80;88.50
18291;DHT22;9271;48.590;8.866;2022-10-16T09:36:41;26.50;88.50
18291;DHT22;9271;48.590;8.866;2022-10-16T09:39:11;26.40;90.10
18291;DHT22;9271;48.590;8.866;2022-10-16T09:41:39;28.60;86.10
18291;DHT22;9271;48.590;8.866;2022-10-16T09:44:18;31.80;75.90
18291;DHT22;9271;48.590;8.866;2022-10-16T09:46:45;35.10;66.00
18291;DHT22;9271;48.590;8.866;2022-10-16T09:49:22;34.70;60.00
18291;DHT22;9271;48.590;8.866;2022-10-16T09:51:50;34.10;60.10
18291;DHT22;9271;48.590;8.866;2022-10-16T09:54:18;34.20;61.40
18291;DHT22;9271;48.590;8.866;2022-10-16T09:56:45;34.60;59.80
18291;DHT22;9271;48.590;8.866;2022-10-16T09:59:18;34.70;58.70
18291;DHT22;9271;48.590;8.866;2022-10-16T10:01:47;34.40;58.80
18291;DHT22;9271;48.590;8.866;2022-10-16T10:04:14;34.50;57.00
18291;DHT22;9271;48.590;8.866;2022-10-16T10:06:44;32.10;58.00
18291;DHT22;9271;48.590;8.866;2022-10-16T10:09:18;29.70;64.80
18291;DHT22;9271;48.590;8.866;2022-10-16T10:11:48;28.60;67.90
18291;DHT22;9271;48.590;8.866;2022-10-16T10:14:22;28.40;69.20
18291;DHT22;9271;48.590;8.866;2022-10-16T10:16:50;31.70;64.60
18291;DHT22;9271;48.590;8.866;2022-10-16T10:19:19;32.80;59.20
18291;DHT22;9271;48.590;8.866;2022-10-16T10:21:48;31.60;60.40
18291;DHT22;9271;48.590;8.866;2022-10-16T10:24:17;33.30;59.60
18291;DHT22;9271;48.590;8.866;2022-10-16T10:26:50;36.80;53.20
18291;DHT22;9271;48.590;8.866;2022-10-16T10:29:35;38.10;49.80
18291;DHT22;9271;48.590;8.866;2022-10-16T10:32:15;37.90;46.20
18291;DHT22;9271;48.590;8.866;2022-10-16T10:34:58;37.90;48.80
18291;DHT22;9271;48.590;8.866;2022-10-16T10:37:47;38.10;45.60
18291;DHT22;9271;48.590;8.866;2022-10-16T10:40:28;39.00;44.10
18291;DHT22;9271;48.590;8.866;2022-10-16T10:43:03;39.60;42.90
18291;DHT22;9271;48.590;8.866;2022-10-16T10:45:38;38.80;41.70
18291;DHT22;9271;48.590;8.866;2022-10-16T10:48:24;37.40;43.80
18291;DHT22;9271;48.590;8.866;2022-10-16T10:50:55;37.10;44.50
18291;DHT22;9271;48.590;8.866;2022-10-16T10:53:33;37.30;43.90
18291;DHT22;9271;48.590;8.866;2022-10-16T10:56:10;37.00;44.40
18291;DHT22;9271;48.590;8.866;2022-10-16T10:59:02;37.60;46.40
18291;DHT22;9271;48.590;8.866;2022-10-16T11:01:39;36.50;45.50
18291;DHT22;9271;48.590;8.866;2022-10-16T11:04:32;35.30;47.00
18291;DHT22;9271;48.590;8.866;2022-10-16T11:07:04;34.10;49.20
18291;DHT22;9271;48.590;8.866;2022-10-16T11:09:36;32.80;51.70
18291;DHT22;9271;48.590;8.866;2022-10-16T11:12:07;31.90;53.60
18291;DHT22;9271;48.590;8.866;2022-10-16T11:14:42;31.70;54.80
18291;DHT22;9271;48.590;8.866;2022-10-16T11:17:11;32.70;53.90
18291;DHT22;9271;48.590;8.866;2022-10-16T11:19:44;34.70;51.90
18291;DHT22;9271;48.590;8.866;2022-10-16T11:22:16;37.70;46.50
18291;DHT22;9271;48.590;8.866;2022-10-16T11:24:50;39.30;44.00
18291;DHT22;9271;48.590;8.866;2022-10-16T11:27:21;39.90;40.90
18291;DHT22;9271;48.590;8.866;2022-10-16T11:29:56;39.40;41.50
18291;DHT22;9271;48.590;8.866;2022-10-16T11:32:28;36.60;44.90
18291;DHT22;9271;48.590;8.866;2022-10-16T11:35:00;36.10;43.30
18291;DHT22;9271;48.590;8.866;2022-10-16T11:37:33;35.60;42.70
18291;DHT22;9271;48.590;8.866;2022-10-16T11:40:18;37.50;42.50
18291;DHT22;9271;48.590;8.866;2022-10-16T11:42:50;37.50;40.00
18291;DHT22;9271;48.590;8.866;2022-10-16T11:45:26;37.80;39.10
18291;DHT22;9271;48.590;8.866;2022-10-16T11:48:00;39.00;39.80
18291;DHT22;9271;48.590;8.866;2022-10-16T11:50:33;40.00;36.70
18291;DHT22;9271;48.590;8.866;2022-10-16T11:53:04;38.50;35.90
18291;DHT22;9271;48.590;8.866;2022-10-16T11:55:38;37.10;39.90
18291;DHT22;9271;48.590;8.866;2022-10-16T11:58:07;38.80;36.90
18291;DHT22;9271;48.590;8.866;2022-10-16T12:00:39;36.10;39.30
18291;DHT22;9271;48.590;8.866;2022-10-16T12:03:12;33.00;43.90
18291;DHT22;9271;48.590;8.866;2022-10-16T12:05:55;32.20;45.50
18291;DHT22;9271;48.590;8.866;2022-10-16T12:08:25;31.70;46.70
18291;DHT22;9271;48.590;8.866;2022-10-16T12:10:53;31.90;48.20
18291;DHT22;9271;48.590;8.866;2022-10-16T12:13:34;32.30;46.70
18291;DHT22;9271;48.590;8.866;2022-10-16T12:16:21;31.70;48.40
18291;DHT22;9271;48.590;8.866;2022-10-16T12:18:49;31.30;48.80
18291;DHT22;9271;48.590;8.866;2022-10-16T12:21:17;32.40;47.00
18291;DHT22;9271;48.590;8.866;2022-10-16T12:23:49;32.50;46.20
18291;DHT22;9271;48.590;8.866;2022-10-16T12:26:25;32.20;46.10
18291;DHT22;9271;48.590;8.866;2022-10-16T12:28:54;33.20;47.70
18291;DHT22;9271;48.590;8.866;2022-10-16T12:31:21;35.80;43.00
18291;DHT22;9271;48.590;8.866;2022-10-16T12:33:58;38.30;38.50
18291;DHT22;9271;48.590;8.866;2022-10-16T12:36:28;39.90;35.30
18291;DHT22;9271;48.590;8.866;2022-10-16T12:38:55;41.30;37.10
18291;DHT22;9271;48.590;8.866;2022-10-16T12:41:28;41.60;33.70
18291;DHT22;9271;48.590;8.866;2022-10-16T12:43:55;43.20;33.50
18291;DHT22;9271;48.590;8.866;2022-10-16T12:46:35;43.70;33.60
18291;DHT22;9271;48.590;8.866;2022-10-16T12:49:15;43.00;32.00
18291;DHT22;9271;48.590;8.866;2022-10-16T12:51:46;37.70;38.60
18291;DHT22;9271;48.590;8.866;2022-10-16T12:54:15;35.90;40.50
18291;DHT22;9271;48.590;8.866;2022-10-16T12:56:53;35.40;41.80
18291;DHT22;9271;48.590;8.866;2022-10-16T12:59:31;36.10;42.20
18291;DHT22;9271;48.590;8.866;2022-10-16T13:05:12;37.60;39.70
18291;DHT22;9271;48.590;8.866;2022-10-16T13:07:53;36.70;39.80
18291;DHT22;9271;48.590;8.866;2022-10-16T13:10:26;37.00;39.50
18291;DHT22;9271;48.590;8.866;2022-10-16T13:13:10;35.70;39.80
18291;DHT22;9271;48.590;8.866;2022-10-16T13:15:51;35.50;42.40
18291;DHT22;9271;48.590;8.866;2022-10-16T13:18:24;36.90;41.80
18291;DHT22;9271;48.590;8.866;2022-10-16T13:21:04;37.70;39.00
18291;DHT22;9271;48.590;8.866;2022-10-16T13:23:40;38.50;38.00
18291;DHT22;9271;48.590;8.866;2022-10-16T13:26:18;38.20;37.10
18291;DHT22;9271;48.590;8.866;2022-10-16T13:28:49;37.40;38.80
18291;DHT22;9271;48.590;8.866;2022-10-16T13:31:19;36.40;40.20
18291;DHT22;9271;48.590;8.866;2022-10-16T13:33:48;34.00;42.70
18291;DHT22;9271;48.590;8.866;2022-10-16T13:36:20;32.60;45.80
18291;DHT22;9271;48.590;8.866;2022-10-16T13:38:48;32.00;47.90
18291;DHT22;9271;48.590;8.866;2022-10-16T13:41:16;30.60;50.10
18291;DHT22;9271;48.590;8.866;2022-10-16T13:43:45;30.00;51.70
18291;DHT22;9271;48.590;8.866;2022-10-16T13:46:16;29.90;52.10
18291;DHT22;9271;48.590;8.866;2022-10-16T13:48:43;30.10;52.60
18291;DHT22;9271;48.590;8.866;2022-10-16T13:51:15;30.10;51.90
18291;DHT22;9271;48.590;8.866;2022-10-16T13:53:42;30.20;52.20
18291;DHT22;9271;48.590;8.866;2022-10-16T13:56:12;30.10;51.40
18291;DHT22;9271;48.590;8.866;2022-10-16T13:58:39;30.20;51.20
18291;DHT22;9271;48.590;8.866;2022-10-16T14:01:17;29.80;51.60
18291;DHT22;9271;48.590;8.866;2022-10-16T14:03:45;29.50;53.80
18291;DHT22;9271;48.590;8.866;2022-10-16T14:06:14;29.60;54.00
18291;DHT22;9271;48.590;8.866;2022-10-16T14:08:44;29.80;53.60
18291;DHT22;9271;48.590;8.866;2022-10-16T14:11:12;29.90;53.90
18291;DHT22;9271;48.590;8.866;2022-10-16T14:13:42;30.00;52.80
18291;DHT22;9271;48.590;8.866;2022-10-16T14:16:15;30.10;53.00
18291;DHT22;9271;48.590;8.866;2022-10-16T14:18:49;30.50;52.20
18291;DHT22;9271;48.590;8.866;2022-10-16T14:21:18;31.40;50.40
18291;DHT22;9271;48.590;8.866;2022-10-16T14:23:45;32.30;49.20
18291;DHT22;9271;48.590;8.866;2022-10-16T14:26:13;33.50;47.40
18291;DHT22;9271;48.590;8.866;2022-10-16T14:28:41;34.50;45.20
18291;DHT22;9271;48.590;8.866;2022-10-16T14:31:28;34.70;44.60
18291;DHT22;9271;48.590;8.866;2022-10-16T14:33:56;34.80;43.70
18291;DHT22;9271;48.590;8.866;2022-10-16T14:36:24;34.50;44.50
18291;DHT22;9271;48.590;8.866;2022-10-16T14:38:58;34.00;45.00
18291;DHT22;9271;48.590;8.866;2022-10-16T14:41:26;33.70;46.00
18291;DHT22;9271;48.590;8.866;2022-10-16T14:43:55;33.90;45.50
18291;DHT22;9271;48.590;8.866;2022-10-16T14:46:28;33.70;45.80
18291;DHT22;9271;48.590;8.866;2022-10-16T14:49:01;33.70;46.00
18291;DHT22;9271;48.590;8.866;2022-10-16T14:51:29;33.60;46.70
18291;DHT22;9271;48.590;8.866;2022-10-16T14:53:55;34.10;45.30
18291;DHT22;9271;48.590;8.866;2022-10-16T14:56:23;34.40;46.30
18291;DHT22;9271;48.590;8.866;2022-10-16T14:58:51;34.50;45.60
18291;DHT22;9271;48.590;8.866;2022-10-16T15:01:19;34.80;44.60
18291;DHT22;9271;48.590;8.866;2022-10-16T15:03:46;34.60;44.20
18291;DHT22;9271;48.590;8.866;2022-10-16T15:06:15;34.50;44.60
18291;DHT22;9271;48.590;8.866;2022-10-16T15:08:42;34.00;45.10
18291;DHT22;9271;48.590;8.866;2022-10-16T15:11:11;33.40;46.20
18291;DHT22;9271;48.590;8.866;2022-10-16T15:13:38;32.70;47.20
18291;DHT22;9271;48.590;8.866;2022-10-16T15:16:08;32.30;48.00
18291;DHT22;9271;48.590;8.866;2022-10-16T15:18:36;32.50;47.70
18291;DHT22;9271;48.590;8.866;2022-10-16T15:21:03;32.70;48.30
18291;DHT22;9271;48.590;8.866;2022-10-16T15:23:31;33.00;47.10
18291;DHT22;9271;48.590;8.866;2022-10-16T15:25:58;32.40;47.50
18291;DHT22;9271;48.590;8.866;2022-10-16T15:28:25;32.70;48.20
18291;DHT22;9271;48.590;8.866;2022-10-16T15:30:53;32.00;48.60
18291;DHT22;9271;48.590;8.866;2022-10-16T15:33:22;31.90;50.00
18291;DHT22;9271;48.590;8.866;2022-10-16T15:35:50;31.90;51.50
18291;DHT22;9271;48.590;8.866;2022-10-16T15:38:18;31.50;50.20
18291;DHT22;9271;48.590;8.866;2022-10-16T15:40:47;30.30;52.10
18291;DHT22;9271;48.590;8.866;2022-10-16T15:43:15;29.40;54.80
18291;DHT22;9271;48.590;8.866;2022-10-16T15:45:42;29.00;56.20
18291;DHT22;9271;48.590;8.866;2022-10-16T15:48:11;28.60;56.30
18291;DHT22;9271;48.590;8.866;2022-10-16T15:50:39;28.30;57.50
18291;DHT22;9271;48.590;8.866;2022-10-16T15:53:05;27.80;60.60
18291;DHT22;9271;48.590;8.866;2022-10-16T15:55:33;27.30;62.30
18291;DHT22;9271;48.590;8.866;2022-10-16T15:58:04;26.90;61.20
18291;DHT22;9271;48.590;8.866;2022-10-16T16:00:31;26.60;64.60
18291;DHT22;9271;48.590;8.866;2022-10-16T16:02:58;26.20;65.30
18291;DHT22;9271;48.590;8.866;2022-10-16T16:05:25;25.90;68.00
18291;DHT22;9271;48.590;8.866;2022-10-16T16:07:53;25.70;67.30